sensor_id;sensor_type;location;lat;lon;timestamp;pressure;altitude;pressure_sealevel;temperature;humidity
66681;BME280;53575;51.366;12.350;2023-04-07T00:01:20;100544.66;;;3.46;67.31
66681;BME280;53575;51.366;12.350;2023-04-07T00:03:46;100548.75;;;3.38;66.46
66681;BME280;53575;51.366;12.350;2023-04-07T00:06:12;100551.38;;;3.39;70.19
66681;BME280;53575;51.366;12.350;2023-04-07T00:08:37;100546.22;;;3.39;67.92
66681;BME280;53575;51.366;12.350;2023-04-07T00:11:03;100540.84;;;3.32;69.35
66681;BME280;53575;51.366;12.350;2023-04-07T00:13:29;100540.03;;;3.33;68.63
66681;BME280;53575;51.366;12.350;2023-04-07T00:15:54;100545.06;;;3.28;68.41
66681;BME280;53575;51.366;12.350;2023-04-07T00:18:19;100545.88;;;3.27;70.25
66681;BME280;53575;51.366;12.350;2023-04-07T00:20:45;100534.84;;;3.33;70.42
66681;BME280;53575;51.366;12.350;2023-04-07T00:23:10;100535.75;;;3.35;70.42
66681;BME280;53575;51.366;12.350;2023-04-07T00:25:36;100538.78;;;3.18;69.88
66681;BME280;53575;51.366;12.350;2023-04-07T00:28:01;100532.66;;;3.15;71.16
66681;BME280;53575;51.366;12.350;2023-04-07T00:30:26;100522.00;;;3.03;70.98
66681;BME280;53575;51.366;12.350;2023-04-07T00:32:52;100526.91;;;3.25;71.62
66681;BME280;53575;51.366;12.350;2023-04-07T00:35:17;100535.13;;;3.12;68.68
66681;BME280;53575;51.366;12.350;2023-04-07T00:37:43;100523.63;;;3.01;69.34
66681;BME280;53575;51.366;12.350;2023-04-07T00:40:08;100525.47;;;3.05;70.75
66681;BME280;53575;51.366;12.350;2023-04-07T00:42:34;100521.16;;;3.04;69.84
66681;BME280;53575;51.366;12.350;2023-04-07T00:45:00;100521.94;;;3.01;70.00
66681;BME280;53575;51.366;12.350;2023-04-07T00:47:25;100519.22;;;2.97;69.75
66681;BME280;53575;51.366;12.350;2023-04-07T00:49:51;100520.91;;;2.95;68.72
66681;BME280;53575;51.366;12.350;2023-04-07T00:52:18;100511.34;;;2.90;70.62
66681;BME280;53575;51.366;12.350;2023-04-07T00:54:44;100513.63;;;2.81;69.62
66681;BME280;53575;51.366;12.350;2023-04-07T00:57:11;100517.06;;;2.80;69.33
66681;BME280;53575;51.366;12.350;2023-04-07T00:59:36;100509.41;;;2.83;69.26
66681;BME280;53575;51.366;12.350;2023-04-07T01:04:34;100505.00;;;2.79;68.68
66681;BME280;53575;51.366;12.350;2023-04-07T01:07:08;100509.13;;;2.74;69.88
66681;BME280;53575;51.366;12.350;2023-04-07T01:10:02;100504.94;;;2.78;70.20
66681;BME280;53575;51.366;12.350;2023-04-07T01:12:46;100505.75;;;2.75;70.13
66681;BME280;53575;51.366;12.350;2023-04-07T01:15:20;100502.22;;;2.73;70.27
66681;BME280;53575;51.366;12.350;2023-04-07T01:17:56;100501.66;;;2.83;73.72
66681;BME280;53575;51.366;12.350;2023-04-07T01:20:26;100502.69;;;2.90;69.15
66681;BME280;53575;51.366;12.350;2023-04-07T01:22:56;100504.25;;;2.83;69.28
66681;BME280;53575;51.366;12.350;2023-04-07T01:30:18;100501.78;;;2.88;68.90
66681;BME280;53575;51.366;12.350;2023-04-07T01:32:49;100499.22;;;2.89;68.27
66681;BME280;53575;51.366;12.350;2023-04-07T01:35:17;100496.53;;;2.85;70.47
66681;BME280;53575;51.366;12.350;2023-04-07T01:37:43;100494.78;;;2.84;68.94
66681;BME280;53575;51.366;12.350;2023-04-07T01:40:13;100493.84;;;2.82;69.58
66681;BME280;53575;51.366;12.350;2023-04-07T01:42:41;100485.09;;;2.75;71.03
66681;BME280;53575;51.366;12.350;2023-04-07T01:45:07;100484.16;;;2.73;72.53
66681;BME280;53575;51.366;12.350;2023-04-07T01:47:35;100488.34;;;2.69;72.75
66681;BME280;53575;51.366;12.350;2023-04-07T01:50:02;100479.50;;;2.60;70.12
66681;BME280;53575;51.366;12.350;2023-04-07T01:52:32;100481.03;;;2.53;72.76
66681;BME280;53575;51.366;12.350;2023-04-07T01:54:59;100478.31;;;2.49;73.54
66681;BME280;53575;51.366;12.350;2023-04-07T01:57:25;100489.44;;;2.48;72.68
66681;BME280;53575;51.366;12.350;2023-04-07T01:59:50;100486.69;;;2.41;72.98
66681;BME280;53575;51.366;12.350;2023-04-07T02:02:16;100483.06;;;2.35;73.49
66681;BME280;53575;51.366;12.350;2023-04-07T02:07:38;100486.78;;;2.44;72.09
66681;BME280;53575;51.366;12.350;2023-04-07T02:10:09;100486.63;;;2.40;72.46
66681;BME280;53575;51.366;12.350;2023-04-07T02:12:37;100482.06;;;2.30;72.59
66681;BME280;53575;51.366;12.350;2023-04-07T02:15:05;100475.22;;;2.32;72.62
66681;BME280;53575;51.366;12.350;2023-04-07T02:17:31;100476.28;;;2.38;74.31
66681;BME280;53575;51.366;12.350;2023-04-07T02:19:59;100476.91;;;2.30;73.32
66681;BME280;53575;51.366;12.350;2023-04-07T02:22:26;100480.16;;;2.24;72.94
66681;BME280;53575;51.366;12.350;2023-04-07T02:24:52;100472.28;;;2.19;73.16
66681;BME280;53575;51.366;12.350;2023-04-07T02:27:17;100479.91;;;2.16;74.87
66681;BME280;53575;51.366;12.350;2023-04-07T02:29:44;100476.72;;;2.24;76.35
66681;BME280;53575;51.366;12.350;2023-04-07T02:32:10;100473.78;;;2.13;74.41
66681;BME280;53575;51.366;12.350;2023-04-07T02:34:35;100473.56;;;2.05;73.53
66681;BME280;53575;51.366;12.350;2023-04-07T02:37:01;100465.84;;;2.05;75.68
66681;BME280;53575;51.366;12.350;2023-04-07T02:39:26;100476.28;;;2.10;74.30
66681;BME280;53575;51.366;12.350;2023-04-07T02:41:51;100473.31;;;1.98;74.60
66681;BME280;53575;51.366;12.350;2023-04-07T02:44:17;100476.84;;;2.00;75.69
66681;BME280;53575;51.366;12.350;2023-04-07T02:46:42;100472.44;;;1.95;75.05
66681;BME280;53575;51.366;12.350;2023-04-07T02:49:08;100471.38;;;1.90;74.79
66681;BME280;53575;51.366;12.350;2023-04-07T02:51:33;100472.28;;;1.91;73.76
66681;BME280;53575;51.366;12.350;2023-04-07T02:53:58;100471.44;;;1.92;75.29
66681;BME280;53575;51.366;12.350;2023-04-07T02:56:24;100471.56;;;1.95;78.01
66681;BME280;53575;51.366;12.350;2023-04-07T02:58:50;100464.81;;;2.00;76.25
66681;BME280;53575;51.366;12.350;2023-04-07T03:01:15;100468.41;;;2.05;77.23
66681;BME280;53575;51.366;12.350;2023-04-07T03:03:41;100470.41;;;2.14;76.88
66681;BME280;53575;51.366;12.350;2023-04-07T03:06:09;100469.38;;;2.09;77.27
66681;BME280;53575;51.366;12.350;2023-04-07T03:08:34;100476.03;;;2.02;77.54
66681;BME280;53575;51.366;12.350;2023-04-07T03:10:59;100465.44;;;1.91;76.27
66681;BME280;53575;51.366;12.350;2023-04-07T03:13:25;100471.72;;;2.01;78.68
66681;BME280;53575;51.366;12.350;2023-04-07T03:15:50;100466.53;;;2.00;77.96
66681;BME280;53575;51.366;12.350;2023-04-07T03:18:16;100470.72;;;1.96;78.48
66681;BME280;53575;51.366;12.350;2023-04-07T03:20:42;100470.97;;;2.05;78.55
66681;BME280;53575;51.366;12.350;2023-04-07T03:23:08;100458.16;;;2.07;78.11
66681;BME280;53575;51.366;12.350;2023-04-07T03:25:34;100459.63;;;1.99;76.64
66681;BME280;53575;51.366;12.350;2023-04-07T03:27:59;100461.38;;;2.00;78.70
66681;BME280;53575;51.366;12.350;2023-04-07T03:30:25;100465.31;;;2.17;76.68
66681;BME280;53575;51.366;12.350;2023-04-07T03:32:51;100466.81;;;2.09;76.59
66681;BME280;53575;51.366;12.350;2023-04-07T03:35:16;100466.69;;;2.06;76.60
66681;BME280;53575;51.366;12.350;2023-04-07T03:37:42;100464.63;;;1.94;75.21
66681;BME280;53575;51.366;12.350;2023-04-07T03:40:07;100458.47;;;1.89;76.15
66681;BME280;53575;51.366;12.350;2023-04-07T03:42:33;100459.41;;;1.91;78.60
66681;BME280;53575;51.366;12.350;2023-04-07T03:44:58;100463.31;;;2.07;77.54
66681;BME280;53575;51.366;12.350;2023-04-07T03:47:24;100457.97;;;2.01;76.33
66681;BME280;53575;51.366;12.350;2023-04-07T03:49:49;100457.19;;;2.03;77.86
66681;BME280;53575;51.366;12.350;2023-04-07T03:52:15;100461.97;;;1.91;78.54
66681;BME280;53575;51.366;12.350;2023-04-07T03:54:40;100460.34;;;1.94;79.38
66681;BME280;53575;51.366;12.350;2023-04-07T03:57:06;100458.97;;;1.77;77.68
66681;BME280;53575;51.366;12.350;2023-04-07T03:59:32;100459.97;;;1.82;78.40
66681;BME280;53575;51.366;12.350;2023-04-07T04:01:57;100460.56;;;1.74;79.36
66681;BME280;53575;51.366;12.350;2023-04-07T04:04:22;100466.78;;;1.80;80.08
66681;BME280;53575;51.366;12.350;2023-04-07T04:06:49;100465.25;;;1.60;77.91
66681;BME280;53575;51.366;12.350;2023-04-07T04:09:15;100470.28;;;1.82;78.82
66681;BME280;53575;51.366;12.350;2023-04-07T04:11:40;100466.78;;;1.80;78.58
66681;BME280;53575;51.366;12.350;2023-04-07T04:14:06;100466.97;;;1.59;78.30
66681;BME280;53575;51.366;12.350;2023-04-07T04:16:31;100466.44;;;1.42;78.39
66681;BME280;53575;51.366;12.350;2023-04-07T04:18:59;100466.28;;;1.38;79.59
66681;BME280;53575;51.366;12.350;2023-04-07T04:21:25;100468.13;;;1.42;80.18
66681;BME280;53575;51.366;12.350;2023-04-07T04:23:51;100467.03;;;1.35;79.37
66681;BME280;53575;51.366;12.350;2023-04-07T04:26:17;100467.34;;;1.44;80.11
66681;BME280;53575;51.366;12.350;2023-04-07T04:28:42;100467.94;;;1.37;79.92
66681;BME280;53575;51.366;12.350;2023-04-07T04:31:07;100471.22;;;1.57;80.81
66681;BME280;53575;51.366;12.350;2023-04-07T04:33:33;100464.13;;;1.52;80.43
66681;BME280;53575;51.366;12.350;2023-04-07T04:35:58;100460.41;;;1.42;79.85
66681;BME280;53575;51.366;12.350;2023-04-07T04:38:24;100467.19;;;1.40;79.90
66681;BME280;53575;51.366;12.350;2023-04-07T04:40:49;100463.88;;;1.44;81.33
66681;BME280;53575;51.366;12.350;2023-04-07T04:43:15;100458.59;;;1.39;80.80
66681;BME280;53575;51.366;12.350;2023-04-07T04:45:40;100464.47;;;1.35;79.94
66681;BME280;53575;51.366;12.350;2023-04-07T04:48:06;100469.88;;;1.43;80.34
66681;BME280;53575;51.366;12.350;2023-04-07T04:50:31;100466.81;;;1.29;78.52
66681;BME280;53575;51.366;12.350;2023-04-07T04:52:57;100470.84;;;1.21;79.73
66681;BME280;53575;51.366;12.350;2023-04-07T04:55:22;100465.31;;;1.34;80.70
66681;BME280;53575;51.366;12.350;2023-04-07T04:57:47;100476.50;;;1.36;81.00
66681;BME280;53575;51.366;12.350;2023-04-07T05:00:13;100469.66;;;1.37;77.67
66681;BME280;53575;51.366;12.350;2023-04-07T05:02:39;100468.28;;;1.46;80.36
66681;BME280;53575;51.366;12.350;2023-04-07T05:05:05;100467.94;;;1.37;80.57
66681;BME280;53575;51.366;12.350;2023-04-07T05:07:30;100470.63;;;1.40;79.85
66681;BME280;53575;51.366;12.350;2023-04-07T05:09:55;100470.59;;;1.39;78.60
66681;BME280;53575;51.366;12.350;2023-04-07T05:12:21;100467.69;;;1.55;82.07
66681;BME280;53575;51.366;12.350;2023-04-07T05:14:46;100470.78;;;1.45;80.32
66681;BME280;53575;51.366;12.350;2023-04-07T05:17:12;100474.06;;;1.66;81.36
66681;BME280;53575;51.366;12.350;2023-04-07T05:19:37;100475.00;;;1.68;80.68
66681;BME280;53575;51.366;12.350;2023-04-07T05:22:03;100471.22;;;1.57;79.99
66681;BME280;53575;51.366;12.350;2023-04-07T05:24:28;100480.56;;;1.55;80.69
66681;BME280;53575;51.366;12.350;2023-04-07T05:26:54;100464.97;;;1.51;79.04
66681;BME280;53575;51.366;12.350;2023-04-07T05:29:21;100473.44;;;1.46;78.93
66681;BME280;53575;51.366;12.350;2023-04-07T05:31:47;100475.53;;;1.85;82.29
66681;BME280;53575;51.366;12.350;2023-04-07T05:34:12;100483.16;;;1.82;80.34
66681;BME280;53575;51.366;12.350;2023-04-07T05:36:37;100482.03;;;1.74;79.40
66681;BME280;53575;51.366;12.350;2023-04-07T05:39:03;100480.22;;;1.71;78.79
66681;BME280;53575;51.366;12.350;2023-04-07T05:41:28;100477.81;;;1.76;79.37
66681;BME280;53575;51.366;12.350;2023-04-07T05:43:54;100475.97;;;1.72;79.10
66681;BME280;53575;51.366;12.350;2023-04-07T05:46:20;100482.63;;;1.65;79.56
66681;BME280;53575;51.366;12.350;2023-04-07T05:48:45;100484.69;;;1.76;79.43
66681;BME280;53575;51.366;12.350;2023-04-07T05:51:10;100487.31;;;1.77;81.02
66681;BME280;53575;51.366;12.350;2023-04-07T05:53:36;100485.34;;;1.97;79.37
66681;BME280;53575;51.366;12.350;2023-04-07T05:56:01;100495.03;;;1.77;78.79
66681;BME280;53575;51.366;12.350;2023-04-07T05:58:27;100483.84;;;1.77;79.80
66681;BME280;53575;51.366;12.350;2023-04-07T06:00:52;100484.13;;;1.86;79.16
66681;BME280;53575;51.366;12.350;2023-04-07T06:03:18;100498.97;;;1.66;79.24
66681;BME280;53575;51.366;12.350;2023-04-07T06:05:46;100489.84;;;1.50;78.58
66681;BME280;53575;51.366;12.350;2023-04-07T06:08:12;100489.16;;;1.56;77.89
66681;BME280;53575;51.366;12.350;2023-04-07T06:10:37;100498.84;;;1.63;78.24
66681;BME280;53575;51.366;12.350;2023-04-07T06:13:05;100498.50;;;1.52;78.49
66681;BME280;53575;51.366;12.350;2023-04-07T06:15:31;100493.28;;;1.76;78.01
66681;BME280;53575;51.366;12.350;2023-04-07T06:17:57;100486.28;;;1.72;77.24
66681;BME280;53575;51.366;12.350;2023-04-07T06:20:22;100493.28;;;1.76;77.49
66681;BME280;53575;51.366;12.350;2023-04-07T06:22:48;100498.47;;;1.78;77.77
66681;BME280;53575;51.366;12.350;2023-04-07T06:25:14;100490.09;;;1.83;77.92
66681;BME280;53575;51.366;12.350;2023-04-07T06:27:39;100493.78;;;1.91;77.29
66681;BME280;53575;51.366;12.350;2023-04-07T06:30:05;100494.75;;;2.24;78.25
66681;BME280;53575;51.366;12.350;2023-04-07T06:32:30;100489.66;;;2.25;76.31
66681;BME280;53575;51.366;12.350;2023-04-07T06:34:57;100491.63;;;2.34;75.32
66681;BME280;53575;51.366;12.350;2023-04-07T06:37:23;100494.00;;;2.56;77.21
66681;BME280;53575;51.366;12.350;2023-04-07T06:39:49;100486.13;;;2.82;79.33
66681;BME280;53575;51.366;12.350;2023-04-07T06:42:14;100495.63;;;2.83;76.33
66681;BME280;53575;51.366;12.350;2023-04-07T06:44:40;100488.88;;;2.88;73.65
66681;BME280;53575;51.366;12.350;2023-04-07T06:47:05;100489.84;;;2.91;72.40
66681;BME280;53575;51.366;12.350;2023-04-07T06:49:31;100491.91;;;3.05;75.46
66681;BME280;53575;51.366;12.350;2023-04-07T06:51:56;100486.91;;;3.11;72.27
66681;BME280;53575;51.366;12.350;2023-04-07T06:54:21;100493.91;;;3.15;71.99
66681;BME280;53575;51.366;12.350;2023-04-07T06:56:47;100494.91;;;3.20;72.23
66681;BME280;53575;51.366;12.350;2023-04-07T06:59:12;100492.59;;;3.31;72.15
66681;BME280;53575;51.366;12.350;2023-04-07T07:01:37;100491.91;;;3.36;71.12
66681;BME280;53575;51.366;12.350;2023-04-07T07:04:03;100493.94;;;3.50;71.14
66681;BME280;53575;51.366;12.350;2023-04-07T07:06:30;100484.75;;;3.61;72.70
66681;BME280;53575;51.366;12.350;2023-04-07T07:08:56;100491.81;;;3.66;70.79
66681;BME280;53575;51.366;12.350;2023-04-07T07:11:21;100493.75;;;3.77;66.96
66681;BME280;53575;51.366;12.350;2023-04-07T07:13:47;100493.75;;;3.77;67.67
66681;BME280;53575;51.366;12.350;2023-04-07T07:16:12;100494.88;;;3.88;68.27
66681;BME280;53575;51.366;12.350;2023-04-07T07:18:38;100503.19;;;4.11;65.80
66681;BME280;53575;51.366;12.350;2023-04-07T07:21:03;100504.22;;;4.19;65.34
66681;BME280;53575;51.366;12.350;2023-04-07T07:23:29;100500.22;;;4.32;64.71
66681;BME280;53575;51.366;12.350;2023-04-07T07:25:55;100503.59;;;4.28;65.76
66681;BME280;53575;51.366;12.350;2023-04-07T07:28:20;100512.03;;;4.21;64.63
66681;BME280;53575;51.366;12.350;2023-04-07T07:30:46;100515.63;;;4.27;68.05
66681;BME280;53575;51.366;12.350;2023-04-07T07:33:11;100507.63;;;4.56;63.64
66681;BME280;53575;51.366;12.350;2023-04-07T07:35:37;100509.94;;;4.84;62.49
66681;BME280;53575;51.366;12.350;2023-04-07T07:38:02;100504.34;;;5.07;60.99
66681;BME280;53575;51.366;12.350;2023-04-07T07:40:28;100499.34;;;5.16;61.54
66681;BME280;53575;51.366;12.350;2023-04-07T07:42:53;100507.63;;;5.44;61.23
66681;BME280;53575;51.366;12.350;2023-04-07T07:45:19;100517.44;;;5.63;60.32
66681;BME280;53575;51.366;12.350;2023-04-07T07:47:45;100513.56;;;5.90;56.78
66681;BME280;53575;51.366;12.350;2023-04-07T07:50:10;100512.59;;;5.83;57.95
66681;BME280;53575;51.366;12.350;2023-04-07T07:52:36;100509.53;;;6.05;58.51
66681;BME280;53575;51.366;12.350;2023-04-07T07:55:02;100509.78;;;6.22;56.53
66681;BME280;53575;51.366;12.350;2023-04-07T07:57:27;100513.19;;;6.18;56.43
66681;BME280;53575;51.366;12.350;2023-04-07T07:59:55;100506.56;;;6.39;56.29
66681;BME280;53575;51.366;12.350;2023-04-07T08:02:20;100512.69;;;6.44;55.64
66681;BME280;53575;51.366;12.350;2023-04-07T08:04:46;100507.56;;;6.50;55.59
66681;BME280;53575;51.366;12.350;2023-04-07T08:07:11;100504.94;;;6.48;55.42
66681;BME280;53575;51.366;12.350;2023-04-07T08:09:37;100506.88;;;6.62;54.91
66681;BME280;53575;51.366;12.350;2023-04-07T08:12:02;100507.69;;;6.59;54.33
66681;BME280;53575;51.366;12.350;2023-04-07T08:14:28;100509.72;;;6.81;52.97
66681;BME280;53575;51.366;12.350;2023-04-07T08:16:54;100513.25;;;6.88;53.35
66681;BME280;53575;51.366;12.350;2023-04-07T08:19:20;100510.84;;;7.05;53.49
66681;BME280;53575;51.366;12.350;2023-04-07T08:21:45;100511.91;;;7.24;52.06
66681;BME280;53575;51.366;12.350;2023-04-07T08:24:11;100520.78;;;7.43;50.81
66681;BME280;53575;51.366;12.350;2023-04-07T08:26:36;100526.22;;;7.70;49.56
66681;BME280;53575;51.366;12.350;2023-04-07T08:29:02;100523.00;;;7.99;49.55
66681;BME280;53575;51.366;12.350;2023-04-07T08:31:28;100529.31;;;8.35;47.32
66681;BME280;53575;51.366;12.350;2023-04-07T08:33:54;100531.25;;;8.59;47.01
66681;BME280;53575;51.366;12.350;2023-04-07T08:36:23;100531.34;;;8.80;46.05
66681;BME280;53575;51.366;12.350;2023-04-07T08:38:48;100532.34;;;9.05;47.39
66681;BME280;53575;51.366;12.350;2023-04-07T08:41:17;100528.94;;;9.41;46.32
66681;BME280;53575;51.366;12.350;2023-04-07T08:43:45;100529.88;;;9.79;44.01
66681;BME280;53575;51.366;12.350;2023-04-07T08:46:13;100534.19;;;10.10;43.35
66681;BME280;53575;51.366;12.350;2023-04-07T08:48:42;100521.16;;;10.39;43.11
66681;BME280;53575;51.366;12.350;2023-04-07T08:51:09;100520.25;;;10.51;42.75
66681;BME280;53575;51.366;12.350;2023-04-07T08:53:47;100515.03;;;10.46;41.64
66681;BME280;53575;51.366;12.350;2023-04-07T08:56:15;100517.56;;;10.71;41.13
66681;BME280;53575;51.366;12.350;2023-04-07T08:58:41;100521.81;;;10.95;40.75
66681;BME280;53575;51.366;12.350;2023-04-07T09:01:08;100530.53;;;10.98;40.88
66681;BME280;53575;51.366;12.350;2023-04-07T09:03:34;100528.69;;;11.17;40.48
66681;BME280;53575;51.366;12.350;2023-04-07T09:06:00;100525.16;;;11.28;40.17
66681;BME280;53575;51.366;12.350;2023-04-07T09:08:26;100525.00;;;11.52;39.43
66681;BME280;53575;51.366;12.350;2023-04-07T09:10:53;100526.94;;;11.24;39.78
66681;BME280;53575;51.366;12.350;2023-04-07T09:13:19;100520.88;;;11.14;40.23
66681;BME280;53575;51.366;12.350;2023-04-07T09:15:44;100524.06;;;11.62;39.65
66681;BME280;53575;51.366;12.350;2023-04-07T09:18:10;100523.03;;;11.91;38.96
66681;BME280;53575;51.366;12.350;2023-04-07T09:20:58;100519.81;;;11.44;39.56
66681;BME280;53575;51.366;12.350;2023-04-07T09:23:35;100522.25;;;11.70;39.16
66681;BME280;53575;51.366;12.350;2023-04-07T09:26:19;100524.84;;;11.77;38.91
66681;BME280;53575;51.366;12.350;2023-04-07T09:28:48;100525.72;;;11.76;39.13
66681;BME280;53575;51.366;12.350;2023-04-07T09:31:15;100519.75;;;11.55;38.32
66681;BME280;53575;51.366;12.350;2023-04-07T09:33:41;100521.41;;;11.68;38.04
66681;BME280;53575;51.366;12.350;2023-04-07T09:36:06;100521.50;;;11.56;37.84
66681;BME280;53575;51.366;12.350;2023-04-07T09:38:33;100517.88;;;11.71;37.52
66681;BME280;53575;51.366;12.350;2023-04-07T09:41:11;100523.03;;;11.89;37.64
66681;BME280;53575;51.366;12.350;2023-04-07T09:43:40;100517.50;;;12.20;37.20
66681;BME280;53575;51.366;12.350;2023-04-07T09:46:11;100517.28;;;12.43;37.54
66681;BME280;53575;51.366;12.350;2023-04-07T09:48:38;100505.97;;;12.41;36.30
66681;BME280;53575;51.366;12.350;2023-04-07T09:51:12;100510.38;;;12.34;37.50
66681;BME280;53575;51.366;12.350;2023-04-07T09:53:46;100506.03;;;12.32;38.33
66681;BME280;53575;51.366;12.350;2023-04-07T09:56:18;100507.25;;;11.99;38.43
66681;BME280;53575;51.366;12.350;2023-04-07T09:58:45;100492.75;;;11.53;39.43
66681;BME280;53575;51.366;12.350;2023-04-07T10:01:12;100494.44;;;11.59;39.12
66681;BME280;53575;51.366;12.350;2023-04-07T10:03:38;100495.44;;;11.41;38.38
66681;BME280;53575;51.366;12.350;2023-04-07T10:06:05;100500.53;;;11.59;39.40
66681;BME280;53575;51.366;12.350;2023-04-07T10:08:32;100487.41;;;11.62;39.12
66681;BME280;53575;51.366;12.350;2023-04-07T10:11:02;100495.97;;;11.83;39.57
66681;BME280;53575;51.366;12.350;2023-04-07T10:13:32;100498.41;;;12.10;39.67
66681;BME280;53575;51.366;12.350;2023-04-07T10:15:58;100497.34;;;12.28;38.94
66681;BME280;53575;51.366;12.350;2023-04-07T10:18:29;100500.00;;;12.24;37.98
66681;BME280;53575;51.366;12.350;2023-04-07T10:21:02;100492.97;;;12.30;38.57
66681;BME280;53575;51.366;12.350;2023-04-07T10:23:58;100492.56;;;12.67;38.81
66681;BME280;53575;51.366;12.350;2023-04-07T10:26:31;100486.09;;;12.94;37.71
66681;BME280;53575;51.366;12.350;2023-04-07T10:29:02;100488.47;;;13.12;37.77
66681;BME280;53575;51.366;12.350;2023-04-07T10:31:29;100492.66;;;13.27;36.04
66681;BME280;53575;51.366;12.350;2023-04-07T10:33:56;100490.53;;;12.89;36.39
66681;BME280;53575;51.366;12.350;2023-04-07T10:36:21;100488.00;;;12.81;37.09
66681;BME280;53575;51.366;12.350;2023-04-07T10:41:34;100483.44;;;13.59;36.80
66681;BME280;53575;51.366;12.350;2023-04-07T10:44:02;100479.78;;;13.69;35.88
66681;BME280;53575;51.366;12.350;2023-04-07T10:49:16;100489.72;;;14.03;35.00
66681;BME280;53575;51.366;12.350;2023-04-07T10:51:42;100484.63;;;13.94;34.77
66681;BME280;53575;51.366;12.350;2023-04-07T10:54:15;100485.47;;;13.41;35.35
66681;BME280;53575;51.366;12.350;2023-04-07T10:59:37;100491.50;;;12.80;35.53
66681;BME280;53575;51.366;12.350;2023-04-07T11:04:39;100486.06;;;12.96;35.95
66681;BME280;53575;51.366;12.350;2023-04-07T11:07:04;100487.28;;;13.35;35.16
66681;BME280;53575;51.366;12.350;2023-04-07T11:09:30;100484.81;;;13.23;35.56
66681;BME280;53575;51.366;12.350;2023-04-07T11:11:55;100493.25;;;14.02;34.67
66681;BME280;53575;51.366;12.350;2023-04-07T11:14:29;100489.63;;;14.07;34.07
66681;BME280;53575;51.366;12.350;2023-04-07T11:16:56;100487.13;;;14.01;34.02
66681;BME280;53575;51.366;12.350;2023-04-07T11:19:22;100493.25;;;14.00;33.85
66681;BME280;53575;51.366;12.350;2023-04-07T11:21:48;100479.69;;;13.16;34.78
66681;BME280;53575;51.366;12.350;2023-04-07T11:24:35;100482.00;;;13.38;34.39
66681;BME280;53575;51.366;12.350;2023-04-07T11:27:03;100489.50;;;13.01;35.09
66681;BME280;53575;51.366;12.350;2023-04-07T11:29:33;100490.84;;;13.32;34.97
66681;BME280;53575;51.366;12.350;2023-04-07T11:32:01;100487.59;;;13.74;34.63
66681;BME280;53575;51.366;12.350;2023-04-07T11:36:55;100480.53;;;13.76;34.10
66681;BME280;53575;51.366;12.350;2023-04-07T11:39:24;100489.31;;;13.75;34.69
66681;BME280;53575;51.366;12.350;2023-04-07T11:41:55;100477.69;;;13.34;34.76
66681;BME280;53575;51.366;12.350;2023-04-07T11:44:21;100491.44;;;13.51;34.37
66681;BME280;53575;51.366;12.350;2023-04-07T11:46:58;100490.09;;;13.80;34.15
66681;BME280;53575;51.366;12.350;2023-04-07T11:49:25;100491.25;;;13.63;33.65
66681;BME280;53575;51.366;12.350;2023-04-07T11:52:00;100486.09;;;13.59;33.75
66681;BME280;53575;51.366;12.350;2023-04-07T11:54:26;100481.19;;;13.90;33.56
66681;BME280;53575;51.366;12.350;2023-04-07T11:56:51;100487.13;;;14.00;33.21
66681;BME280;53575;51.366;12.350;2023-04-07T11:59:24;100475.97;;;14.36;32.83
66681;BME280;53575;51.366;12.350;2023-04-07T12:01:51;100464.97;;;14.61;32.61
66681;BME280;53575;51.366;12.350;2023-04-07T12:04:17;100480.69;;;14.64;33.39
66681;BME280;53575;51.366;12.350;2023-04-07T12:06:44;100476.47;;;15.00;32.05
66681;BME280;53575;51.366;12.350;2023-04-07T12:09:30;100479.44;;;15.22;31.57
66681;BME280;53575;51.366;12.350;2023-04-07T12:11:57;100479.78;;;15.47;30.67
66681;BME280;53575;51.366;12.350;2023-04-07T12:14:24;100480.88;;;15.37;31.39
66681;BME280;53575;51.366;12.350;2023-04-07T12:16:50;100481.56;;;15.06;32.29
66681;BME280;53575;51.366;12.350;2023-04-07T12:19:16;100477.38;;;15.38;31.13
66681;BME280;53575;51.366;12.350;2023-04-07T12:21:42;100476.22;;;15.50;30.81
66681;BME280;53575;51.366;12.350;2023-04-07T12:24:08;100470.00;;;15.15;31.49
66681;BME280;53575;51.366;12.350;2023-04-07T12:26:33;100466.59;;;14.68;32.18
66681;BME280;53575;51.366;12.350;2023-04-07T12:28:58;100472.56;;;14.30;33.19
66681;BME280;53575;51.366;12.350;2023-04-07T12:31:30;100474.84;;;14.02;33.10
66681;BME280;53575;51.366;12.350;2023-04-07T12:33:56;100474.72;;;14.09;33.02
66681;BME280;53575;51.366;12.350;2023-04-07T12:36:23;100477.53;;;13.99;33.16
66681;BME280;53575;51.366;12.350;2023-04-07T12:38:48;100480.13;;;14.48;33.05
66681;BME280;53575;51.366;12.350;2023-04-07T12:41:13;100470.47;;;14.49;33.18
66681;BME280;53575;51.366;12.350;2023-04-07T12:43:39;100480.06;;;14.53;33.11
66681;BME280;53575;51.366;12.350;2023-04-07T12:46:05;100474.69;;;14.59;33.43
66681;BME280;53575;51.366;12.350;2023-04-07T12:48:30;100477.13;;;14.68;33.43
66681;BME280;53575;51.366;12.350;2023-04-07T12:50:57;100476.97;;;14.76;33.36
66681;BME280;53575;51.366;12.350;2023-04-07T12:53:22;100475.97;;;14.36;33.49
66681;BME280;53575;51.366;12.350;2023-04-07T12:55:47;100478.28;;;14.05;33.90
66681;BME280;53575;51.366;12.350;2023-04-07T12:58:13;100474.84;;;14.00;34.67
66681;BME280;53575;51.366;12.350;2023-04-07T13:00:38;100477.44;;;14.03;34.58
66681;BME280;53575;51.366;12.350;2023-04-07T13:03:05;100468.31;;;14.23;33.99
66681;BME280;53575;51.366;12.350;2023-04-07T13:05:31;100466.09;;;14.49;34.58
66681;BME280;53575;51.366;12.350;2023-04-07T13:07:56;100465.56;;;14.77;33.88
66681;BME280;53575;51.366;12.350;2023-04-07T13:10:22;100467.97;;;14.86;33.02